createdAt,value
2019-02-07T00:02:10.511Z,98032.22
2019-02-07T00:04:40.906Z,98029.60
2019-02-07T00:07:12.779Z,98017.85
2019-02-07T00:09:43.189Z,98002.52
2019-02-07T00:12:13.546Z,97998.25
2019-02-07T00:14:43.892Z,98006.92
2019-02-07T00:17:17.523Z,98005.95
2019-02-07T00:19:47.971Z,98006.44
2019-02-07T00:22:18.339Z,98003.02
2019-02-07T00:24:48.683Z,98008.88
2019-02-07T00:27:18.997Z,98008.72
2019-02-07T00:29:49.315Z,98001.38
2019-02-07T00:32:19.689Z,98000.89
2019-02-07T00:34:50.039Z,97995.19
2019-02-07T00:37:20.462Z,97994.52
2019-02-07T00:39:50.850Z,97999.41
2019-02-07T00:42:21.179Z,97998.42
2019-02-07T00:44:53.069Z,97997.45
2019-02-07T00:47:23.642Z,97996.95
2019-02-07T00:49:54.040Z,97998.25
2019-02-07T00:52:24.471Z,97993.17
2019-02-07T00:54:55.008Z,97998.86
2019-02-07T00:57:25.410Z,97994.95
2019-02-07T00:59:56.074Z,97992.36
2019-02-07T01:02:26.440Z,97985.35
2019-02-07T01:04:56.689Z,97984.39
2019-02-07T01:07:27.079Z,97982.88
2019-02-07T01:09:57.688Z,97977.35
2019-02-07T01:12:28.088Z,97983.55
2019-02-07T01:15:02.029Z,97973.77
2019-02-07T01:17:30.659Z,97971.81
2019-02-07T01:20:02.152Z,97972.78
2019-02-07T01:22:32.483Z,97976.68
2019-02-07T01:25:03.939Z,97964.14
2019-02-07T01:27:34.615Z,97963.80
2019-02-07T01:30:06.470Z,97975.02
2019-02-07T01:32:36.780Z,97966.92
2019-02-07T01:35:07.815Z,97972.78
2019-02-07T01:37:38.225Z,97969.54
2019-02-07T01:40:12.769Z,97968.84
2019-02-07T01:42:43.091Z,97963.97
2019-02-07T01:45:16.413Z,97955.81
2019-02-07T01:47:47.896Z,97950.94
2019-02-07T01:50:20.706Z,97950.42
2019-02-07T01:52:51.799Z,97945.49
2019-02-07T01:55:22.182Z,97941.81
2019-02-07T01:57:52.770Z,97936.12
2019-02-07T02:00:23.151Z,97935.33
2019-02-07T02:02:53.956Z,97931.27
2019-02-07T02:05:24.378Z,97927.83
2019-02-07T02:07:54.654Z,97923.25
2019-02-07T02:10:27.716Z,97922.75
2019-02-07T02:12:58.324Z,97917.37
2019-02-07T02:15:28.758Z,97910.05
2019-02-07T02:17:59.180Z,97907.94
2019-02-07T02:20:29.567Z,97898.81
2019-02-07T02:22:59.922Z,97905.33
2019-02-07T02:25:30.245Z,97905.66
2019-02-07T02:28:00.665Z,97904.36
2019-02-07T02:30:34.003Z,97897.98
2019-02-07T02:33:05.420Z,97898.81
2019-02-07T02:35:35.706Z,97894.75
2019-02-07T02:38:06.084Z,97890.31
2019-02-07T02:40:36.468Z,97896.54
2019-02-07T02:43:06.837Z,97893.59
2019-02-07T02:45:38.030Z,97887.73
2019-02-07T02:48:08.686Z,97888.53
2019-02-07T02:50:38.995Z,97888.53
2019-02-07T02:53:09.419Z,97879.41
2019-02-07T02:55:42.415Z,97870.76
2019-02-07T02:58:12.765Z,97867.35
2019-02-07T03:01:11.773Z,97855.12
2019-02-07T03:04:07.246Z,97848.42
2019-02-07T03:06:56.328Z,97852.67
2019-02-07T03:09:51.655Z,97856.73
2019-02-07T03:12:39.507Z,97859.05
2019-02-07T03:15:33.675Z,97856.92
2019-02-07T03:18:33.481Z,97849.56
2019-02-07T03:21:41.802Z,97842.72
2019-02-07T03:24:42.322Z,97831.80
2019-02-07T03:27:40.985Z,97831.48
2019-02-07T03:33:52.001Z,97824.32
2019-02-07T03:36:40.165Z,97826.59
2019-02-07T03:39:46.681Z,97825.31
2019-02-07T03:42:47.009Z,97818.77
2019-02-07T03:45:42.301Z,97810.11
2019-02-07T03:48:31.607Z,97796.61
2019-02-07T03:51:32.818Z,97798.55
2019-02-07T03:54:37.315Z,97801.00
2019-02-07T03:57:26.122Z,97801.33
2019-02-07T04:00:18.106Z,97800.86
2019-02-07T04:03:06.744Z,97812.08
2019-02-07T04:05:56.781Z,97803.12
2019-02-07T04:08:44.943Z,97800.99
2019-02-07T04:11:33.257Z,97800.67
2019-02-07T04:14:30.224Z,97801.30
2019-02-07T04:17:37.886Z,97781.55
2019-02-07T04:20:43.817Z,97782.06
2019-02-07T04:23:30.923Z,97776.14
2019-02-07T04:26:18.739Z,97783.44
2019-02-07T04:28:54.596Z,97780.36
2019-02-07T04:31:42.468Z,97774.15
2019-02-07T04:34:34.358Z,97776.74
2019-02-07T04:37:19.252Z,97776.73
2019-02-07T04:40:11.941Z,97766.06
2019-02-07T04:43:04.419Z,97768.69
2019-02-07T04:45:46.923Z,97762.02
2019-02-07T04:48:42.044Z,97765.26
2019-02-07T04:51:21.656Z,97763.80
2019-02-07T04:54:13.842Z,97768.51
2019-02-07T04:57:07.853Z,97763.45
2019-02-07T04:59:59.970Z,97768.20
2019-02-07T05:02:52.287Z,97761.67
2019-02-07T05:05:53.765Z,97752.84
2019-02-07T05:08:34.723Z,97749.05
2019-02-07T05:11:22.720Z,97749.53
2019-02-07T05:14:17.938Z,97750.86
2019-02-07T05:17:22.494Z,97765.06
2019-02-07T05:20:07.707Z,97752.34
2019-02-07T05:22:57.004Z,97735.86
2019-02-07T05:25:45.400Z,97737.65
2019-02-07T05:28:37.677Z,97757.70
2019-02-07T05:31:14.241Z,97744.85
2019-02-07T05:34:01.072Z,97742.73
2019-02-07T05:36:55.647Z,97746.27
2019-02-07T05:39:43.106Z,97727.06
2019-02-07T05:42:35.068Z,97733.91
2019-02-07T05:45:24.537Z,97746.11
2019-02-07T05:48:06.418Z,97752.50
2019-02-07T05:50:54.657Z,97748.58
2019-02-07T05:53:35.747Z,97761.98
2019-02-07T05:56:25.801Z,97744.20
2019-02-07T05:59:29.879Z,97747.97
2019-02-07T06:02:22.165Z,97745.48
2019-02-07T06:05:10.384Z,97745.92
2019-02-07T06:08:02.720Z,97738.09
2019-02-07T06:10:54.742Z,97737.80
2019-02-07T06:13:46.537Z,97729.28
2019-02-07T06:16:34.492Z,97722.29
2019-02-07T06:19:21.675Z,97723.52
2019-02-07T06:22:11.426Z,97726.48
2019-02-07T06:24:57.332Z,97726.92
2019-02-07T06:27:41.954Z,97722.34
2019-02-07T06:30:32.846Z,97723.03
2019-02-07T06:33:21.026Z,97720.88
2019-02-07T06:36:22.020Z,97716.25
2019-02-07T06:39:10.180Z,97712.50
2019-02-07T06:41:58.179Z,97716.88
2019-02-07T06:44:50.434Z,97713.44
2019-02-07T06:47:39.365Z,97705.58
2019-02-07T06:50:26.093Z,97708.95
2019-02-07T06:53:12.507Z,97704.55
2019-02-07T06:56:02.881Z,97698.63
2019-02-07T06:58:50.872Z,97692.81
2019-02-07T07:01:38.884Z,97691.97
2019-02-07T07:04:20.024Z,97693.44
2019-02-07T07:07:07.813Z,97694.45
2019-02-07T07:09:57.070Z,97694.72
2019-02-07T07:12:40.702Z,97696.34
2019-02-07T07:15:27.465Z,97685.66
2019-02-07T07:18:19.790Z,97688.01
2019-02-07T07:21:07.750Z,97681.12
2019-02-07T07:24:07.318Z,97674.50
2019-02-07T07:26:51.778Z,97673.92
2019-02-07T07:29:53.358Z,97674.18
2019-02-07T07:32:48.861Z,97673.44
2019-02-07T07:35:45.567Z,97668.82
2019-02-07T07:38:37.991Z,97659.59
2019-02-07T07:41:19.759Z,97663.12
2019-02-07T07:44:24.449Z,97665.66
2019-02-07T07:47:17.438Z,97664.20
2019-02-07T07:50:12.874Z,97659.41
2019-02-07T07:53:06.520Z,97668.14
2019-02-07T07:55:47.556Z,97654.76
2019-02-07T07:58:40.903Z,97657.70
2019-02-07T08:01:42.275Z,97645.83
2019-02-07T08:04:34.360Z,97643.23
2019-02-07T08:07:19.566Z,97640.13
2019-02-07T08:10:07.741Z,97639.89
2019-02-07T08:13:18.005Z,97639.87
2019-02-07T08:16:06.944Z,97640.19
2019-02-07T08:19:02.714Z,97637.14
2019-02-07T08:22:01.049Z,97650.52
2019-02-07T08:24:53.481Z,97644.09
2019-02-07T08:27:42.986Z,97639.84
2019-02-07T08:30:23.604Z,97636.89
2019-02-07T08:33:00.143Z,97638.28
2019-02-07T08:36:04.483Z,97643.64
2019-02-07T08:38:45.937Z,97627.92
2019-02-07T08:41:30.346Z,97629.73
2019-02-07T08:44:18.224Z,97627.55
2019-02-07T08:47:04.878Z,97630.90
2019-02-07T08:49:57.199Z,97625.92
2019-02-07T08:52:46.656Z,97632.81
2019-02-07T08:55:48.128Z,97635.48
2019-02-07T08:58:46.312Z,97639.70
2019-02-07T09:01:41.771Z,97637.34
2019-02-07T09:04:29.956Z,97634.08
2019-02-07T09:07:25.657Z,97640.89
2019-02-07T09:10:04.499Z,97631.83
2019-02-07T09:13:00.025Z,97628.44
2019-02-07T09:15:49.377Z,97627.00
2019-02-07T09:18:45.760Z,97622.84
2019-02-07T09:21:32.044Z,97626.76
2019-02-07T09:24:15.353Z,97622.66
2019-02-07T09:27:03.017Z,97618.32
2019-02-07T09:29:52.962Z,97611.98
2019-02-07T09:32:40.638Z,97612.02
2019-02-07T09:35:28.982Z,97612.95
2019-02-07T09:38:16.963Z,97612.10
2019-02-07T09:41:06.179Z,97603.77
2019-02-07T09:43:45.429Z,97607.20
2019-02-07T09:46:46.753Z,97603.67
2019-02-07T09:49:37.439Z,97604.17
2019-02-07T09:52:35.961Z,97597.77
2019-02-07T09:55:25.541Z,97592.72
2019-02-07T09:58:14.930Z,97601.09
2019-02-07T10:01:16.959Z,97604.69
2019-02-07T10:04:04.810Z,97598.95
2019-02-07T10:06:53.529Z,97605.86
2019-02-07T10:10:00.901Z,97599.91
2019-02-07T10:12:52.175Z,97604.62
2019-02-07T10:15:37.853Z,97599.86
2019-02-07T10:18:33.115Z,97601.76
2019-02-07T10:21:14.835Z,97597.35
2019-02-07T10:24:02.883Z,97593.55
2019-02-07T10:26:51.103Z,97594.05
2019-02-07T10:29:46.790Z,97593.53
2019-02-07T10:32:34.579Z,97592.00
2019-02-07T10:35:31.455Z,97589.81
2019-02-07T10:38:17.750Z,97591.13
2019-02-07T10:41:12.198Z,97593.85
2019-02-07T10:44:00.350Z,97580.65
2019-02-07T10:46:58.905Z,97577.94
2019-02-07T10:49:58.700Z,97583.22
2019-02-07T10:52:43.816Z,97590.09
2019-02-07T10:55:20.314Z,97583.94
2019-02-07T10:58:04.219Z,97576.84
2019-02-07T11:00:52.748Z,97572.44
2019-02-07T11:03:41.986Z,97575.02
2019-02-07T11:06:30.208Z,97570.89
2019-02-07T11:09:19.358Z,97576.98
2019-02-07T11:12:09.137Z,97574.47
2019-02-07T11:15:10.513Z,97566.48
2019-02-07T11:17:58.499Z,97563.69
2019-02-07T11:20:59.992Z,97565.61
2019-02-07T11:23:44.549Z,97567.50
2019-02-07T11:26:27.582Z,97568.42
2019-02-07T11:29:30.508Z,97566.34
2019-02-07T11:32:13.954Z,97556.83
2019-02-07T11:35:07.270Z,97559.41
2019-02-07T11:38:02.810Z,97564.61
2019-02-07T11:40:55.167Z,97553.08
2019-02-07T11:43:50.154Z,97551.61
2019-02-07T11:46:37.446Z,97555.72
2019-02-07T11:49:15.023Z,97555.21
2019-02-07T11:51:58.662Z,97556.57
2019-02-07T11:54:49.391Z,97556.27
2019-02-07T11:57:41.584Z,97547.27
2019-02-07T12:00:57.047Z,97547.71
2019-02-07T12:03:45.106Z,97543.91
2019-02-07T12:06:26.417Z,97535.25
2019-02-07T12:09:05.249Z,97544.10
2019-02-07T12:11:57.391Z,97544.28
2019-02-07T12:14:52.947Z,97545.34
2019-02-07T12:17:42.241Z,97540.50
2019-02-07T12:20:26.131Z,97535.29
2019-02-07T12:23:14.179Z,97532.48
2019-02-07T12:26:02.363Z,97536.63
2019-02-07T12:28:51.432Z,97532.05
2019-02-07T12:31:40.660Z,97527.41
2019-02-07T12:34:30.857Z,97531.27
2019-02-07T12:37:20.242Z,97534.95
2019-02-07T12:40:12.543Z,97535.00
2019-02-07T12:42:52.218Z,97534.86
2019-02-07T12:45:41.495Z,97540.63
2019-02-07T12:48:29.643Z,97536.95
2019-02-07T12:51:18.941Z,97532.52
2019-02-07T12:54:07.325Z,97533.30
2019-02-07T12:56:55.558Z,97529.52
2019-02-07T12:59:50.884Z,97530.93
2019-02-07T13:02:45.785Z,97526.50
2019-02-07T13:05:35.044Z,97532.89
2019-02-07T13:08:23.529Z,97526.48
2019-02-07T13:11:10.143Z,97525.45
2019-02-07T13:14:01.602Z,97526.77
2019-02-07T13:16:50.791Z,97513.57
2019-02-07T13:19:40.908Z,97513.98
2019-02-07T13:22:28.524Z,97518.22
2019-02-07T13:25:23.833Z,97505.23
2019-02-07T13:28:31.067Z,97498.98
2019-02-07T13:31:26.562Z,97505.65
2019-02-07T13:34:08.592Z,97510.34
2019-02-07T13:36:49.717Z,97507.78
2019-02-07T13:39:38.896Z,97511.50
2019-02-07T13:42:37.584Z,97506.39
2019-02-07T13:45:32.532Z,97492.61
2019-02-07T13:48:19.250Z,97500.67
2019-02-07T13:51:08.475Z,97499.73
2019-02-07T13:53:46.829Z,97506.66
2019-02-07T13:56:45.235Z,97503.80
2019-02-07T13:59:40.369Z,97505.94
2019-02-07T14:02:36.831Z,97506.33
2019-02-07T14:05:33.732Z,97506.88
2019-02-07T14:08:38.049Z,97517.13
2019-02-07T14:11:11.363Z,97516.45
2019-02-07T14:14:16.013Z,97521.18
2019-02-07T14:16:55.840Z,97523.41
2019-02-07T14:19:45.127Z,97526.39
2019-02-07T14:22:33.285Z,97528.03
2019-02-07T14:25:25.740Z,97537.84
2019-02-07T14:28:20.718Z,97536.73
2019-02-07T14:31:16.122Z,97537.00
2019-02-07T14:34:05.273Z,97546.15
2019-02-07T14:36:57.523Z,97547.84
2019-02-07T14:39:41.506Z,97550.75
2019-02-07T14:42:30.974Z,97547.19
2019-02-07T14:45:18.069Z,97560.19
2019-02-07T14:47:48.518Z,97557.05
2019-02-07T14:50:19.802Z,97562.06
2019-02-07T14:52:50.235Z,97564.20
2019-02-07T14:55:20.659Z,97573.30
2019-02-07T14:57:51.101Z,97581.20
2019-02-07T15:00:24.482Z,97585.14
2019-02-07T15:02:55.045Z,97585.94
2019-02-07T15:05:25.482Z,97587.78
2019-02-07T15:07:55.869Z,97588.09
2019-02-07T15:10:26.183Z,97591.42
2019-02-07T15:12:56.608Z,97593.39
2019-02-07T15:15:26.947Z,97597.55
2019-02-07T15:17:57.443Z,97602.04
2019-02-07T15:20:27.889Z,97608.79
2019-02-07T15:22:58.865Z,97610.16
2019-02-07T15:25:29.183Z,97610.67
2019-02-07T15:27:59.582Z,97610.50
2019-02-07T15:30:29.977Z,97616.36
2019-02-07T15:33:00.321Z,97614.80
2019-02-07T15:35:34.904Z,97614.00
2019-02-07T15:38:05.604Z,97612.84
2019-02-07T15:40:36.084Z,97616.67
2019-02-07T15:43:06.493Z,97615.69
2019-02-07T15:45:37.084Z,97608.39
2019-02-07T15:48:07.515Z,97611.58
2019-02-07T15:50:38.518Z,97603.48
2019-02-07T15:53:09.003Z,97604.50
2019-02-07T15:55:39.389Z,97607.91
2019-02-07T15:58:09.909Z,97611.19
2019-02-07T16:01:14.581Z,97606.16
2019-02-07T16:04:09.449Z,97615.91
2019-02-07T16:06:40.286Z,97616.38
2019-02-07T16:09:11.512Z,97618.98
2019-02-07T16:11:42.892Z,97621.27
2019-02-07T16:14:13.627Z,97624.31
2019-02-07T16:16:43.995Z,97629.77
2019-02-07T16:19:14.503Z,97629.91
2019-02-07T16:21:44.987Z,97634.33
2019-02-07T16:24:16.021Z,97631.23
2019-02-07T16:26:46.587Z,97634.39
2019-02-07T16:29:17.009Z,97631.09
2019-02-07T16:31:47.306Z,97634.50
2019-02-07T16:34:18.873Z,97630.39
2019-02-07T16:36:49.785Z,97639.63
2019-02-07T16:39:21.889Z,97636.73
2019-02-07T16:41:52.373Z,97633.84
2019-02-07T16:44:22.920Z,97633.43
2019-02-07T16:46:54.441Z,97635.17
2019-02-07T16:49:25.147Z,97632.87
2019-02-07T16:51:55.304Z,97631.00
2019-02-07T16:54:25.684Z,97631.30
2019-02-07T16:56:55.900Z,97630.86
2019-02-07T16:59:26.203Z,97635.12
2019-02-07T17:01:56.682Z,97640.80
2019-02-07T17:04:27.151Z,97640.34
2019-02-07T17:06:57.651Z,97651.00
2019-02-07T17:09:30.903Z,97654.72
2019-02-07T17:12:01.280Z,97649.58
2019-02-07T17:14:32.022Z,97646.00
2019-02-07T17:17:02.345Z,97650.78
2019-02-07T17:19:32.630Z,97660.52
2019-02-07T17:22:03.016Z,97662.19
2019-02-07T17:24:33.479Z,97669.84
2019-02-07T17:27:04.106Z,97675.41
2019-02-07T17:29:34.747Z,97682.23
2019-02-07T17:32:05.596Z,97682.00
2019-02-07T17:34:35.932Z,97676.69
2019-02-07T17:37:06.251Z,97689.25
2019-02-07T17:39:37.657Z,97684.50
2019-02-07T17:42:08.114Z,97685.17
2019-02-07T17:44:38.540Z,97690.88
2019-02-07T17:47:10.492Z,97701.08
2019-02-07T17:49:40.942Z,97700.94
2019-02-07T17:52:11.322Z,97699.55
2019-02-07T17:54:42.015Z,97701.38
2019-02-07T17:57:12.310Z,97705.58
2019-02-07T17:59:42.633Z,97713.13
2019-02-07T18:02:14.423Z,97717.73
2019-02-07T18:04:44.788Z,97723.69
2019-02-07T18:07:15.358Z,97727.65
2019-02-07T18:09:45.785Z,97726.63
2019-02-07T18:12:16.131Z,97723.92
2019-02-07T18:14:46.609Z,97726.62
2019-02-07T18:17:21.193Z,97732.66
2019-02-07T18:19:51.643Z,97728.97
2019-02-07T18:22:22.537Z,97734.59
2019-02-07T18:24:52.940Z,97742.12
2019-02-07T18:27:23.402Z,97742.04
2019-02-07T18:29:53.820Z,97745.79
2019-02-07T18:32:24.235Z,97751.56
2019-02-07T18:34:55.720Z,97756.80
2019-02-07T18:37:26.124Z,97765.84
2019-02-07T18:39:56.487Z,97772.12
2019-02-07T18:42:26.870Z,97779.55
2019-02-07T18:44:57.126Z,97790.67
2019-02-07T18:47:27.342Z,97789.34
2019-02-07T18:49:58.185Z,97793.30
2019-02-07T18:52:28.667Z,97793.73
2019-02-07T18:54:59.171Z,97797.88
2019-02-07T18:57:29.484Z,97794.16
2019-02-07T18:59:59.753Z,97796.40
2019-02-07T19:02:30.237Z,97805.80
2019-02-07T19:05:00.858Z,97813.39
2019-02-07T19:07:32.960Z,97820.30
2019-02-07T19:10:04.475Z,97823.32
2019-02-07T19:12:34.828Z,97824.95
2019-02-07T19:15:08.159Z,97836.20
2019-02-07T19:17:38.777Z,97844.00
2019-02-07T19:20:14.292Z,97847.67
2019-02-07T19:22:44.699Z,97849.52
2019-02-07T19:25:15.841Z,97839.50
2019-02-07T19:27:46.360Z,97838.47
2019-02-07T19:30:29.274Z,97841.63
2019-02-07T19:33:00.006Z,97836.31
2019-02-07T19:35:30.449Z,97838.41
2019-02-07T19:38:00.841Z,97842.12
2019-02-07T19:40:31.069Z,97837.68
2019-02-07T19:43:01.718Z,97841.41
2019-02-07T19:45:32.410Z,97846.59
2019-02-07T19:48:02.959Z,97837.72
2019-02-07T19:50:33.247Z,97845.70
2019-02-07T19:53:03.686Z,97841.97
2019-02-07T19:55:34.366Z,97847.53
2019-02-07T19:58:05.092Z,97851.00
2019-02-07T20:00:39.257Z,97852.91
2019-02-07T20:03:08.705Z,97856.47
2019-02-07T20:05:39.568Z,97864.21
2019-02-07T20:08:10.389Z,97865.22
2019-02-07T20:10:41.327Z,97868.34
2019-02-07T20:13:11.774Z,97876.61
2019-02-07T20:15:43.904Z,97853.02
2019-02-07T20:18:14.488Z,97869.56
2019-02-07T20:20:44.998Z,97864.89
2019-02-07T20:23:15.491Z,97871.16
2019-02-07T20:25:45.984Z,97875.09
2019-02-07T20:28:16.467Z,97867.67
2019-02-07T20:33:17.681Z,97876.55
2019-02-07T20:35:48.228Z,97872.69
2019-02-07T20:38:18.690Z,97880.86
2019-02-07T20:40:49.277Z,97881.55
2019-02-07T20:43:19.907Z,97881.41
2019-02-07T20:45:51.334Z,97883.11
2019-02-07T20:48:23.908Z,97886.06
2019-02-07T20:50:54.662Z,97884.19
2019-02-07T20:53:26.570Z,97881.55
2019-02-07T20:55:57.316Z,97888.89
2019-02-07T20:58:28.236Z,97888.76
2019-02-07T21:00:58.973Z,97886.95
2019-02-07T21:03:29.607Z,97896.26
2019-02-07T21:06:00.116Z,97903.55
2019-02-07T21:08:31.924Z,97902.15
2019-02-07T21:11:02.638Z,97904.78
2019-02-07T21:13:33.210Z,97912.09
2019-02-07T21:16:03.944Z,97914.54
2019-02-07T21:18:37.804Z,97918.41
2019-02-07T21:21:08.420Z,97922.30
2019-02-07T21:23:38.912Z,97932.70
2019-02-07T21:26:09.614Z,97933.29
2019-02-07T21:28:40.315Z,97923.70
2019-02-07T21:31:11.054Z,97933.61
2019-02-07T21:33:47.793Z,97935.52
2019-02-07T21:36:18.547Z,97939.42
2019-02-07T21:38:49.024Z,97938.64
2019-02-07T21:41:19.730Z,97940.83
2019-02-07T21:43:50.195Z,97940.17
2019-02-07T21:46:21.876Z,97945.67
2019-02-07T21:48:52.277Z,97943.62
2019-02-07T21:51:23.104Z,97948.85
2019-02-07T21:53:53.564Z,97956.11
2019-02-07T21:56:24.014Z,97957.75
2019-02-07T21:58:54.534Z,97958.08
2019-02-07T22:01:24.998Z,97959.13
2019-02-07T22:03:55.449Z,97954.67
2019-02-07T22:06:26.471Z,97959.80
2019-02-07T22:08:57.130Z,97966.42
2019-02-07T22:11:27.856Z,97960.58
2019-02-07T22:13:59.381Z,97973.25
2019-02-07T22:16:29.876Z,97969.88
2019-02-07T22:19:01.657Z,97973.78
2019-02-07T22:21:32.201Z,97981.08
2019-02-07T22:24:03.657Z,97988.58
2019-02-07T22:26:34.251Z,97989.17
2019-02-07T22:29:04.813Z,97992.61
2019-02-07T22:31:36.580Z,97995.98
2019-02-07T22:34:07.265Z,98004.46
2019-02-07T22:36:37.719Z,98005.12
2019-02-07T22:39:09.500Z,98012.43
2019-02-07T22:41:40.937Z,98008.20
2019-02-07T22:44:11.510Z,98005.89
2019-02-07T22:46:42.006Z,98009.25
2019-02-07T22:49:12.603Z,98012.98
2019-02-07T22:51:43.058Z,98015.61
2019-02-07T22:54:13.573Z,98017.20
2019-02-07T22:56:45.838Z,98021.06
2019-02-07T22:59:17.251Z,98023.20
2019-02-07T23:01:53.057Z,98022.52
2019-02-07T23:04:25.518Z,98022.20
2019-02-07T23:06:55.983Z,98016.78
2019-02-07T23:09:26.312Z,98021.86
2019-02-07T23:11:57.111Z,98028.05
2019-02-07T23:14:27.494Z,98026.23
2019-02-07T23:16:57.915Z,98027.15
2019-02-07T23:19:28.410Z,98032.38
2019-02-07T23:21:58.837Z,98026.19
2019-02-07T23:24:29.256Z,98027.02
2019-02-07T23:26:59.473Z,98032.06
2019-02-07T23:29:29.759Z,98030.55
2019-02-07T23:32:00.100Z,98035.50
2019-02-07T23:34:30.404Z,98033.28
2019-02-07T23:37:00.714Z,98033.19
2019-02-07T23:39:31.308Z,98033.78
2019-02-07T23:42:01.718Z,98031.92
2019-02-07T23:44:32.126Z,98038.23
2019-02-07T23:47:02.497Z,98036.00
2019-02-07T23:49:32.651Z,98037.13
2019-02-07T23:52:02.930Z,98028.59
2019-02-07T23:54:33.721Z,98035.66
2019-02-07T23:57:04.326Z,98035.50
2019-02-07T23:59:34.660Z,98030.53
